Time;durP1;ratioP1;P1;durP2;ratioP2;P2;SDS_P1;SDS_P2;PMS_P1;PMS_P2;Temp;Humidity;BMP_temperature;BMP_pressure;BME280_temperature;BME280_humidity;BME280_pressure;Samples;Min_cycle;Max_cycle;Signal;HPM_P1;HPM_P2
2022/09/24 00:00:44;;;;;;;0.10;0.10;;;14.00;99.90;;;;;;4861023;29;20060;-80
2022/09/24 00:03:10;;;;;;;0.20;0.20;;;13.90;99.90;;;;;;4875097;29;20064;-81
2022/09/24 00:05:40;;;;;;;0.10;0.10;;;13.90;99.90;;;;;;4859000;29;20116;-81
2022/09/24 00:08:07;;;;;;;0.20;0.20;;;13.90;99.90;;;;;;4861065;29;20564;-81
2022/09/24 00:10:40;;;;;;;0.20;0.20;;;13.90;99.90;;;;;;4876063;29;20040;-81
2022/09/24 00:13:08;;;;;;;0.13;0.13;;;13.90;99.90;;;;;;4860418;29;20056;-80
2022/09/24 00:15:52;;;;;;;0.20;0.20;;;13.90;99.90;;;;;;4858901;29;20060;-81
2022/09/24 00:18:19;;;;;;;0.28;0.28;;;13.90;99.90;;;;;;4857080;29;20123;-81
2022/09/24 00:20:44;;;;;;;0.20;0.20;;;13.90;99.90;;;;;;4875806;29;20089;-81
2022/09/24 00:23:11;;;;;;;0.10;0.10;;;13.90;99.90;;;;;;4876096;29;20076;-80
2022/09/24 00:28:30;;;;;;;0.10;0.10;;;13.90;99.90;;;;;;4876753;29;20041;-81
2022/09/24 00:30:58;;;;;;;0.10;0.10;;;13.90;99.90;;;;;;4861224;29;20077;-81
2022/09/24 00:33:27;;;;;;;0.95;0.52;;;13.90;99.90;;;;;;4856579;29;20088;-80
2022/09/24 00:35:58;;;;;;;0.20;0.20;;;13.90;99.90;;;;;;4876325;29;20072;-81
2022/09/24 00:38:24;;;;;;;0.10;0.10;;;14.00;99.90;;;;;;4876434;29;20480;-81
2022/09/24 00:40:49;;;;;;;0.20;0.20;;;14.00;99.90;;;;;;4876995;29;20124;-81
2022/09/24 00:43:41;;;;;;;0.10;0.10;;;14.00;99.90;;;;;;4876004;29;20065;-81
2022/09/24 00:46:26;;;;;;;0.20;0.20;;;13.90;99.90;;;;;;4874284;29;20064;-80
2022/09/24 00:48:57;;;;;;;0.20;0.20;;;14.00;99.90;;;;;;4855916;29;20059;-81
2022/09/24 00:51:25;;;;;;;0.10;0.10;;;14.00;99.90;;;;;;4869527;29;20132;-80
2022/09/24 00:53:55;;;;;;;0.20;0.20;;;14.00;99.90;;;;;;4875468;29;20045;-80
2022/09/24 00:56:21;;;;;;;0.13;0.13;;;14.00;99.90;;;;;;4875853;29;20045;-81
2022/09/24 00:58:53;;;;;;;0.20;0.20;;;14.00;99.90;;;;;;4874898;29;20500;-80
2022/09/24 01:01:21;;;;;;;0.20;0.20;;;14.10;99.90;;;;;;4876208;29;20053;-81
2022/09/24 01:03:48;;;;;;;0.13;0.13;;;14.00;99.90;;;;;;4873860;29;20037;-81
2022/09/24 01:06:14;;;;;;;0.20;0.20;;;14.00;99.90;;;;;;4876533;29;20057;-80
2022/09/24 01:08:40;;;;;;;0.13;0.13;;;14.00;99.90;;;;;;4874197;29;20064;-81
2022/09/24 01:11:32;;;;;;;0.10;0.10;;;14.00;99.90;;;;;;4875260;29;20076;-80
2022/09/24 01:14:34;;;;;;;0.15;0.15;;;14.00;99.90;;;;;;4849908;29;20076;-81
2022/09/24 01:17:03;;;;;;;0.20;0.20;;;14.00;99.90;;;;;;4874202;29;20044;-80
2022/09/24 01:19:47;;;;;;;0.20;0.20;;;14.00;99.90;;;;;;4855918;29;22164;-81
2022/09/24 01:22:45;;;;;;;0.20;0.20;;;14.00;99.90;;;;;;4864039;29;20057;-81
2022/09/24 01:25:26;;;;;;;0.20;0.20;;;14.00;99.90;;;;;;4874648;29;20418;-80
2022/09/24 01:28:25;;;;;;;0.20;0.20;;;14.00;99.90;;;;;;4874970;29;20446;-81
2022/09/24 01:30:58;;;;;;;0.20;0.20;;;14.00;99.90;;;;;;4874087;29;20057;-80
2022/09/24 01:33:27;;;;;;;0.20;0.20;;;14.00;99.90;;;;;;4873750;29;20061;-80
2022/09/24 01:36:05;;;;;;;0.20;0.20;;;14.00;99.90;;;;;;4860045;29;20511;-81
2022/09/24 01:38:40;;;;;;;0.10;0.10;;;14.00;99.90;;;;;;4874627;29;20071;-81
2022/09/24 01:41:09;;;;;;;0.10;0.10;;;14.00;99.90;;;;;;4876317;29;20048;-81
2022/09/24 01:43:35;;;;;;;0.20;0.20;;;14.00;99.90;;;;;;4873828;29;20505;-80
2022/09/24 01:46:04;;;;;;;0.20;0.20;;;14.00;99.90;;;;;;4875553;29;20118;-80
2022/09/24 01:48:32;;;;;;;0.20;0.20;;;14.00;99.90;;;;;;4873398;29;20068;-81
2022/09/24 01:51:01;;;;;;;0.20;0.20;;;14.00;99.90;;;;;;4857817;29;20056;-80
2022/09/24 01:53:41;;;;;;;0.20;0.20;;;14.00;99.90;;;;;;4874392;29;20444;-80
2022/09/24 01:56:26;;;;;;;0.10;0.10;;;14.00;99.90;;;;;;4874448;29;20053;-80
2022/09/24 01:59:19;;;;;;;0.20;0.20;;;14.00;99.90;;;;;;4873504;29;20496;-80
2022/09/24 02:01:52;;;;;;;0.20;0.20;;;14.10;99.90;;;;;;4860390;29;20061;-79
2022/09/24 02:04:20;;;;;;;0.15;0.15;;;14.10;99.90;;;;;;4870917;29;20045;-79
2022/09/24 02:07:00;;;;;;;0.20;0.20;;;14.10;99.90;;;;;;4857851;29;20048;-81
2022/09/24 02:09:31;;;;;;;0.10;0.10;;;14.10;99.90;;;;;;4872839;29;20045;-81
2022/09/24 02:12:40;;;;;;;0.20;0.20;;;14.20;99.90;;;;;;4857228;29;20455;-80
2022/09/24 02:15:10;;;;;;;0.10;0.10;;;14.10;99.90;;;;;;4854547;29;20080;-80
2022/09/24 02:17:39;;;;;;;0.20;0.20;;;14.10;99.90;;;;;;4855771;29;20247;-79
2022/09/24 02:20:12;;;;;;;0.20;0.20;;;14.10;99.90;;;;;;4873437;29;20053;-79
2022/09/24 02:22:40;;;;;;;0.20;0.20;;;14.10;99.90;;;;;;4871914;29;20064;-80
2022/09/24 02:25:09;;;;;;;0.10;0.10;;;14.10;99.90;;;;;;4871508;29;20041;-80
2022/09/24 02:27:35;;;;;;;0.10;0.10;;;14.10;99.90;;;;;;4874762;29;20057;-80
2022/09/24 02:30:01;;;;;;;0.20;0.20;;;14.10;99.90;;;;;;4872464;29;20056;-80
2022/09/24 02:32:33;;;;;;;0.20;0.20;;;14.20;99.90;;;;;;4857808;29;20053;-80
2022/09/24 02:35:04;;;;;;;0.13;0.13;;;14.20;99.90;;;;;;4874165;29;20072;-80
2022/09/24 02:37:34;;;;;;;0.15;0.15;;;14.20;99.90;;;;;;4857429;29;20063;-79
2022/09/24 02:40:01;;;;;;;0.20;0.20;;;14.20;99.90;;;;;;4874827;29;20049;-80
2022/09/24 02:42:30;;;;;;;0.20;0.20;;;14.10;99.90;;;;;;4856603;29;20112;-80
2022/09/24 02:44:58;;;;;;;0.13;0.13;;;14.10;99.90;;;;;;4856446;29;20063;-80
2022/09/24 02:47:24;;;;;;;0.20;0.20;;;14.10;99.90;;;;;;4855617;29;20391;-80
2022/09/24 02:49:50;;;;;;;0.10;0.10;;;14.10;99.90;;;;;;4873884;29;20041;-80
2022/09/24 02:52:15;;;;;;;0.20;0.20;;;14.20;99.90;;;;;;4854963;29;20093;-79
2022/09/24 02:54:41;;;;;;;0.13;0.13;;;14.10;99.90;;;;;;4856908;29;20112;-80
2022/09/24 02:57:07;;;;;;;0.10;0.10;;;14.10;99.90;;;;;;4857205;29;20053;-80
2022/09/24 02:59:33;;;;;;;0.20;0.20;;;14.10;99.90;;;;;;4856938;29;20557;-80
2022/09/24 03:01:59;;;;;;;0.20;0.20;;;14.10;99.90;;;;;;4874019;29;20052;-80
2022/09/24 03:04:25;;;;;;;0.10;0.10;;;14.10;99.90;;;;;;4872970;29;20080;-79
2022/09/24 03:06:51;;;;;;;0.20;0.20;;;14.10;99.90;;;;;;4872688;29;20101;-79
2022/09/24 03:09:16;;;;;;;0.10;0.10;;;14.10;99.90;;;;;;4857108;29;20037;-79
2022/09/24 03:11:42;;;;;;;0.20;0.20;;;14.10;99.90;;;;;;4857537;29;20494;-80
2022/09/24 03:14:08;;;;;;;0.20;0.20;;;14.10;99.90;;;;;;4877624;29;20124;-80
2022/09/24 03:16:33;;;;;;;0.10;0.10;;;14.10;99.90;;;;;;4877611;29;20088;-80
2022/09/24 03:18:59;;;;;;;0.10;0.10;;;14.10;99.90;;;;;;4876304;29;20045;-80
2022/09/24 03:21:24;;;;;;;0.10;0.10;;;14.10;99.90;;;;;;4861968;29;20049;-80
2022/09/24 03:23:50;;;;;;;0.17;0.17;;;14.10;99.90;;;;;;4859525;29;20041;-81
2022/09/24 03:26:16;;;;;;;0.10;0.10;;;14.20;99.90;;;;;;4875807;29;20065;-80
2022/09/24 03:28:42;;;;;;;0.10;0.10;;;14.20;99.90;;;;;;4858999;29;20057;-80
2022/09/24 03:31:08;;;;;;;0.10;0.10;;;14.30;99.90;;;;;;4875600;29;20045;-79
2022/09/24 03:33:42;;;;;;;0.10;0.10;;;14.30;99.90;;;;;;4868764;29;20050;-80
2022/09/24 03:36:10;;;;;;;0.10;0.10;;;14.30;99.90;;;;;;4859691;29;20049;-81
2022/09/24 03:38:37;;;;;;;0.10;0.10;;;14.30;99.90;;;;;;4875627;29;20045;-80
2022/09/24 03:41:04;;;;;;;0.10;0.10;;;14.30;99.90;;;;;;4877953;29;20060;-80
2022/09/24 03:43:31;;;;;;;0.10;0.10;;;14.30;99.90;;;;;;4873628;29;20049;-80
2022/09/24 03:45:57;;;;;;;0.20;0.20;;;14.40;99.90;;;;;;4861852;29;20051;-81
2022/09/24 03:48:25;;;;;;;0.20;0.20;;;14.40;99.90;;;;;;4855554;29;20048;-80
2022/09/24 03:50:51;;;;;;;0.20;0.20;;;14.30;99.90;;;;;;4877516;29;20045;-80
2022/09/24 03:53:17;;;;;;;0.20;0.20;;;14.40;99.90;;;;;;4860475;29;20505;-80
2022/09/24 03:56:02;;;;;;;0.10;0.10;;;14.40;99.90;;;;;;4860598;29;20049;-80
2022/09/24 03:58:30;;;;;;;0.10;0.10;;;14.40;99.90;;;;;;4859354;29;20045;-80
2022/09/24 04:00:56;;;;;;;0.20;0.20;;;14.50;99.90;;;;;;4861723;29;20052;-80
2022/09/24 04:03:23;;;;;;;0.20;0.20;;;14.50;99.90;;;;;;4858822;29;20085;-80
2022/09/24 04:05:50;;;;;;;0.13;0.13;;;14.50;99.90;;;;;;4886247;29;20055;-80
2022/09/24 04:08:19;;;;;;;0.20;0.20;;;14.50;99.90;;;;;;4863133;29;20091;-80
2022/09/24 04:10:46;;;;;;;0.17;0.17;;;14.50;99.90;;;;;;4893669;29;20084;-80
2022/09/24 04:13:14;;;;;;;0.20;0.20;;;14.60;99.90;;;;;;4880512;29;20044;-80
2022/09/24 04:15:40;;;;;;;0.10;0.10;;;14.50;99.90;;;;;;4884282;29;20041;-81
2022/09/24 04:18:07;;;;;;;0.20;0.20;;;14.50;99.90;;;;;;4862590;29;20123;-80
2022/09/24 04:20:33;;;;;;;0.20;0.20;;;14.50;99.90;;;;;;4862230;29;20414;-80
2022/09/24 04:22:59;;;;;;;0.28;0.28;;;14.50;99.90;;;;;;4891685;29;20048;-78
2022/09/24 04:25:27;;;;;;;0.20;0.20;;;14.60;99.90;;;;;;4876082;29;20037;-78
2022/09/24 04:27:55;;;;;;;0.17;0.17;;;14.50;99.90;;;;;;4876554;29;20068;-79
2022/09/24 04:30:22;;;;;;;0.20;0.20;;;14.50;99.90;;;;;;4877718;29;20104;-79
2022/09/24 04:32:50;;;;;;;0.20;0.20;;;14.50;99.90;;;;;;4878192;29;20160;-78
2022/09/24 04:35:16;;;;;;;0.10;0.10;;;14.70;99.90;;;;;;4861836;29;20053;-79
2022/09/24 04:37:42;;;;;;;0.10;0.10;;;14.50;99.90;;;;;;4860692;29;20052;-79
2022/09/24 04:40:09;;;;;;;0.17;0.17;;;14.50;99.90;;;;;;4860663;29;20049;-78
2022/09/24 04:42:34;;;;;;;0.17;0.17;;;14.50;99.90;;;;;;4860826;29;20060;-78
2022/09/24 04:45:01;;;;;;;0.20;0.20;;;14.50;99.90;;;;;;4876493;29;20045;-79
2022/09/24 04:47:26;;;;;;;0.10;0.10;;;14.50;99.90;;;;;;4875541;29;20073;-79
2022/09/24 04:49:52;;;;;;;0.20;0.20;;;14.50;99.90;;;;;;4873656;29;20045;-79
2022/09/24 04:52:18;;;;;;;0.10;0.10;;;14.40;99.90;;;;;;4858481;29;20049;-80
2022/09/24 04:54:46;;;;;;;0.20;0.20;;;14.50;99.90;;;;;;4874047;29;20164;-80
2022/09/24 04:57:13;;;;;;;0.10;0.10;;;14.40;99.90;;;;;;4856467;29;20045;-80
2022/09/24 04:59:39;;;;;;;0.20;0.20;;;14.40;99.90;;;;;;4856303;29;20076;-79
2022/09/24 05:02:07;;;;;;;0.20;0.20;;;14.40;99.90;;;;;;4857980;29;20076;-80
2022/09/24 05:04:36;;;;;;;0.20;0.20;;;14.30;99.90;;;;;;4854958;29;20048;-80
2022/09/24 05:07:03;;;;;;;0.10;0.10;;;14.30;99.90;;;;;;4875143;29;20089;-80
2022/09/24 05:09:30;;;;;;;0.15;0.15;;;14.30;99.90;;;;;;4865202;29;20065;-79
2022/09/24 05:11:57;;;;;;;0.20;0.20;;;14.30;99.90;;;;;;4866176;29;20131;-79
2022/09/24 05:14:23;;;;;;;0.20;0.20;;;14.20;99.90;;;;;;4874479;29;20039;-79
2022/09/24 05:16:49;;;;;;;0.20;0.20;;;14.20;99.90;;;;;;4858388;29;20036;-79
2022/09/24 05:19:14;;;;;;;0.10;0.10;;;14.20;99.90;;;;;;4873686;29;20398;-79
2022/09/24 05:21:40;;;;;;;0.20;0.20;;;14.20;99.90;;;;;;4872830;29;20052;-79
2022/09/24 05:24:06;;;;;;;0.20;0.20;;;14.10;99.90;;;;;;4873890;29;20045;-79
2022/09/24 05:29:18;;;;;;;0.20;0.20;;;14.10;99.90;;;;;;4855936;29;20109;-79
2022/09/24 05:31:43;;;;;;;0.20;0.20;;;14.10;99.90;;;;;;4875296;29;20069;-80
2022/09/24 05:34:09;;;;;;;0.20;0.20;;;14.10;99.90;;;;;;4873618;29;20450;-80
2022/09/24 05:36:35;;;;;;;0.10;0.10;;;14.10;99.90;;;;;;4856740;29;20060;-80
2022/09/24 05:39:04;;;;;;;0.20;0.20;;;14.00;99.90;;;;;;4872843;29;20518;-80
2022/09/24 05:41:29;;;;;;;0.20;0.20;;;14.00;99.90;;;;;;4875426;29;20048;-80
2022/09/24 05:43:55;;;;;;;0.20;0.20;;;14.10;99.90;;;;;;4873304;29;20525;-80
2022/09/24 05:46:21;;;;;;;0.17;0.17;;;14.10;99.90;;;;;;4873450;29;20538;-80
2022/09/24 05:48:47;;;;;;;0.10;0.10;;;14.00;99.90;;;;;;4857481;29;20200;-80
2022/09/24 05:51:13;;;;;;;0.20;0.20;;;14.00;99.90;;;;;;4858499;29;20060;-80
2022/09/24 05:53:38;;;;;;;0.13;0.13;;;14.00;99.90;;;;;;4857039;29;20071;-81
2022/09/24 05:56:04;;;;;;;0.20;0.20;;;14.00;99.90;;;;;;4875302;29;20079;-80
2022/09/24 05:58:30;;;;;;;0.20;0.20;;;14.00;99.90;;;;;;4875382;29;20149;-80
2022/09/24 06:00:59;;;;;;;0.10;0.10;;;14.00;99.90;;;;;;4873034;29;20049;-81
2022/09/24 06:03:25;;;;;;;0.10;0.10;;;14.00;99.90;;;;;;4855038;29;20502;-80
2022/09/24 06:05:51;;;;;;;0.10;0.10;;;14.00;99.90;;;;;;4856925;29;20045;-80
2022/09/24 06:08:18;;;;;;;0.10;0.10;;;14.10;99.90;;;;;;4873341;29;20060;-80
2022/09/24 06:10:46;;;;;;;0.20;0.20;;;14.10;99.90;;;;;;4872867;29;20127;-80
2022/09/24 06:13:15;;;;;;;0.20;0.20;;;14.10;99.90;;;;;;4857985;29;20057;-80
2022/09/24 06:15:43;;;;;;;0.20;0.20;;;14.10;99.90;;;;;;4872410;29;20108;-80
2022/09/24 06:18:11;;;;;;;0.20;0.20;;;14.10;99.90;;;;;;4855306;29;20079;-80
2022/09/24 06:20:37;;;;;;;0.10;0.10;;;14.10;99.90;;;;;;4873234;29;20753;-80
2022/09/24 06:23:03;;;;;;;0.10;0.10;;;14.10;99.90;;;;;;4857790;29;20053;-81
2022/09/24 06:25:29;;;;;;;0.20;0.20;;;14.10;99.90;;;;;;4872178;29;20051;-80
2022/09/24 06:28:00;;;;;;;0.10;0.10;;;14.10;99.90;;;;;;4873549;29;20056;-80
2022/09/24 06:30:32;;;;;;;0.20;0.20;;;14.20;99.90;;;;;;4852254;29;20143;-80
2022/09/24 06:33:07;;;;;;;0.10;0.10;;;14.20;99.90;;;;;;4871324;29;20045;-80
2022/09/24 06:35:34;;;;;;;0.20;0.20;;;14.20;99.90;;;;;;4867705;29;20049;-80
2022/09/24 06:38:01;;;;;;;0.20;0.20;;;14.20;99.90;;;;;;4874896;29;20140;-80
2022/09/24 06:40:26;;;;;;;0.10;0.10;;;14.20;99.90;;;;;;4872645;29;20513;-80
2022/09/24 06:42:52;;;;;;;0.20;0.20;;;14.20;99.90;;;;;;4869931;29;20052;-78
2022/09/24 06:45:19;;;;;;;0.20;0.20;;;14.20;99.90;;;;;;4852404;29;20589;-78
2022/09/24 06:47:54;;;;;;;0.20;0.20;;;14.20;99.90;;;;;;4875186;29;20041;-78
2022/09/24 06:50:21;;;;;;;0.10;0.10;;;14.20;99.90;;;;;;4876660;29;20468;-78
2022/09/24 06:52:47;;;;;;;0.20;0.20;;;14.30;99.90;;;;;;4858854;29;20813;-77
2022/09/24 06:55:13;;;;;;;0.20;0.20;;;14.30;99.90;;;;;;4877278;29;20102;-78
2022/09/24 06:57:39;;;;;;;0.10;0.10;;;14.20;99.90;;;;;;4860788;29;20059;-77
2022/09/24 07:00:05;;;;;;;0.13;0.13;;;14.30;99.90;;;;;;4878754;29;20045;-77
2022/09/24 07:02:31;;;;;;;0.15;0.15;;;14.30;99.90;;;;;;4861273;29;20417;-77
2022/09/24 07:04:57;;;;;;;0.10;0.10;;;14.30;99.90;;;;;;4878959;29;20057;-77
2022/09/24 07:07:28;;;;;;;0.10;0.10;;;14.30;99.90;;;;;;4878658;29;20374;-77
2022/09/24 07:10:00;;;;;;;0.20;0.20;;;14.30;99.90;;;;;;4878134;29;20136;-77
2022/09/24 07:12:28;;;;;;;0.20;0.20;;;14.30;99.90;;;;;;4862083;29;20048;-77
2022/09/24 07:14:54;;;;;;;0.10;0.10;;;14.30;99.90;;;;;;4875607;29;20049;-78
2022/09/24 07:17:19;;;;;;;0.10;0.10;;;14.30;99.90;;;;;;4875712;29;20109;-77
2022/09/24 07:19:45;;;;;;;0.20;0.20;;;14.30;99.90;;;;;;4859857;29;20124;-77
2022/09/24 07:22:11;;;;;;;0.20;0.20;;;14.30;99.90;;;;;;4860998;29;20057;-78
2022/09/24 07:24:36;;;;;;;0.20;0.20;;;14.30;99.90;;;;;;4860115;29;20045;-77
2022/09/24 07:27:06;;;;;;;0.10;0.10;;;14.30;99.90;;;;;;4858131;29;20061;-78
2022/09/24 07:29:32;;;;;;;0.20;0.20;;;14.30;99.90;;;;;;4859966;29;20132;-77
2022/09/24 07:31:57;;;;;;;0.20;0.20;;;14.30;99.90;;;;;;4859111;29;20162;-77
2022/09/24 07:34:23;;;;;;;0.20;0.20;;;14.30;99.90;;;;;;4859309;29;20081;-78
2022/09/24 07:36:49;;;;;;;0.20;0.20;;;14.30;99.90;;;;;;4863789;29;20041;-78
2022/09/24 07:39:15;;;;;;;0.20;0.20;;;14.30;99.90;;;;;;4876371;29;20052;-77
2022/09/24 07:41:41;;;;;;;0.20;0.20;;;14.30;99.90;;;;;;4864057;29;20049;-77
2022/09/24 07:44:12;;;;;;;0.20;0.20;;;14.20;99.90;;;;;;4861200;29;20072;-78
2022/09/24 07:46:38;;;;;;;;;;;14.20;99.90;;;;;;4860694;29;20045;-77
2022/09/24 07:49:04;;;;;;;0.20;0.20;;;14.20;99.90;;;;;;4859010;29;19928;-78
2022/09/24 07:51:30;;;;;;;0.20;0.20;;;14.20;99.90;;;;;;4859976;29;20110;-78
2022/09/24 07:53:57;;;;;;;0.20;0.20;;;14.20;99.90;;;;;;4865789;29;20073;-78
2022/09/24 07:56:23;;;;;;;0.20;0.20;;;14.20;99.90;;;;;;4862369;29;20045;-78
2022/09/24 07:58:50;;;;;;;0.13;0.13;;;14.30;99.90;;;;;;4860843;29;20505;-77
2022/09/24 08:01:16;;;;;;;0.13;0.13;;;14.30;99.90;;;;;;4858177;29;20098;-78
2022/09/24 08:03:43;;;;;;;0.20;0.20;;;14.30;99.90;;;;;;4856153;29;20057;-78
2022/09/24 08:06:09;;;;;;;0.10;0.10;;;14.30;99.90;;;;;;4861225;29;20045;-77
2022/09/24 08:08:35;;;;;;;0.20;0.20;;;14.30;99.90;;;;;;4848892;29;20060;-75
2022/09/24 08:11:05;;;;;;;0.10;0.10;;;14.30;99.90;;;;;;4852230;29;20045;-77
2022/09/24 08:13:31;;;;;;;0.17;0.17;;;14.30;99.90;;;;;;4856184;29;20076;-79
2022/09/24 08:16:01;;;;;;;0.10;0.10;;;14.40;99.90;;;;;;4857981;29;20050;-78
2022/09/24 08:18:30;;;;;;;0.20;0.20;;;14.40;99.90;;;;;;4852575;29;20053;-78
2022/09/24 08:20:56;;;;;;;0.20;0.20;;;14.40;99.90;;;;;;4846892;29;20049;-76
2022/09/24 08:23:22;;;;;;;0.10;0.10;;;14.40;99.90;;;;;;4859499;29;20115;-76
2022/09/24 08:25:49;;;;;;;0.15;0.15;;;;;;;;;;4857602;29;20056;-77
2022/09/24 08:28:18;;;;;;;0.10;0.10;;;;;;;;;;4877717;29;20505;-77
2022/09/24 08:30:45;;;;;;;0.20;0.20;;;;;;;;;;4876963;29;20049;-77
2022/09/24 08:33:11;;;;;;;0.10;0.10;;;;;;;;;;4874619;29;20532;-76
2022/09/24 08:35:40;;;;;;;0.15;0.15;;;;;;;;;;4876088;29;20413;-77
2022/09/24 08:38:08;;;;;;;0.20;0.20;;;;;;;;;;4872407;29;20450;-77
2022/09/24 08:40:45;;;;;;;0.10;0.10;;;14.70;99.90;;;;;;4877615;29;20108;-76
2022/09/24 08:43:45;;;;;;;0.17;0.17;;;14.60;99.90;;;;;;4875104;29;20088;-76
2022/09/24 08:49:09;;;;;;;0.20;0.20;;;14.70;99.90;;;;;;4873388;29;20053;-78
2022/09/24 08:51:50;;;;;;;0.20;0.20;;;14.70;99.90;;;;;;4861656;29;20112;-78
2022/09/24 08:54:16;;;;;;;0.20;0.20;;;14.70;99.90;;;;;;4855414;29;20065;-77
2022/09/24 08:56:45;;;;;;;0.20;0.20;;;14.80;99.90;;;;;;4859612;29;20512;-77
2022/09/24 08:59:30;;;;;;;0.10;0.10;;;14.70;99.90;;;;;;4847777;29;20378;-76
2022/09/24 09:02:15;;;;;;;0.10;0.10;;;14.80;99.90;;;;;;4859813;29;20607;-76
2022/09/24 09:04:51;;;;;;;0.20;0.20;;;14.70;99.90;;;;;;4858407;29;20049;-77
2022/09/24 09:07:24;;;;;;;0.10;0.10;;;14.70;99.90;;;;;;4876980;29;20053;-78
2022/09/24 09:10:16;;;;;;;0.10;0.10;;;14.80;99.90;;;;;;4842520;29;20096;-76
2022/09/24 09:12:47;;;;;;;0.20;0.20;;;14.70;99.90;;;;;;4881215;29;20063;-77
2022/09/24 09:15:24;;;;;;;0.20;0.20;;;14.80;99.90;;;;;;4861333;29;20442;-77
2022/09/24 09:17:58;;;;;;;0.20;0.20;;;14.80;99.90;;;;;;4866939;29;20170;-77
2022/09/24 09:20:37;;;;;;;0.10;0.10;;;14.80;99.90;;;;;;4873299;29;20497;-77
2022/09/24 09:23:31;;;;;;;0.10;0.10;;;14.80;99.90;;;;;;4859798;29;20505;-77
2022/09/24 09:25:58;;;;;;;0.20;0.20;;;14.80;99.90;;;;;;4877079;29;20459;-76
2022/09/24 09:28:28;;;;;;;0.10;0.10;;;14.70;99.90;;;;;;4856897;29;20478;-76
2022/09/24 09:31:35;;;;;;;0.20;0.20;;;14.70;99.90;;;;;;4874022;29;20077;-77
2022/09/24 09:34:00;;;;;;;0.10;0.10;;;14.70;99.90;;;;;;4797319;29;20053;-76
2022/09/24 09:36:32;;;;;;;0.20;0.20;;;14.70;99.90;;;;;;4860739;29;20404;-77
2022/09/24 09:39:08;;;;;;;0.20;0.20;;;14.70;99.90;;;;;;4878575;29;20045;-77
2022/09/24 09:41:47;;;;;;;0.20;0.20;;;14.70;99.90;;;;;;4866279;29;20049;-77
2022/09/24 09:44:22;;;;;;;0.20;0.20;;;14.60;99.90;;;;;;4878298;29;20052;-77
2022/09/24 09:46:58;;;;;;;0.10;0.10;;;14.60;99.90;;;;;;4861763;29;20601;-78
2022/09/24 09:49:30;;;;;;;0.20;0.20;;;14.60;99.90;;;;;;4880667;29;20587;-77
2022/09/24 09:51:59;;;;;;;0.15;0.15;;;14.50;99.90;;;;;;4880487;29;20120;-77
2022/09/24 09:54:36;;;;;;;0.20;0.20;;;14.60;99.90;;;;;;4873696;29;20062;-77
2022/09/24 09:57:02;;;;;;;0.10;0.10;;;14.50;99.90;;;;;;4860167;29;20422;-77
2022/09/24 09:59:32;;;;;;;0.20;0.20;;;14.50;99.90;;;;;;4858904;29;20091;-78
2022/09/24 10:01:58;;;;;;;0.10;0.10;;;14.50;99.90;;;;;;4860320;29;20060;-78
2022/09/24 10:04:33;;;;;;;0.10;0.10;;;14.50;99.90;;;;;;4875108;29;20044;-76
2022/09/24 10:07:04;;;;;;;0.20;0.20;;;14.50;99.90;;;;;;4877006;29;20055;-77
2022/09/24 10:09:30;;;;;;;0.17;0.17;;;14.50;99.90;;;;;;4874769;29;20342;-77
2022/09/24 10:12:06;;;;;;;0.10;0.10;;;14.50;99.90;;;;;;4859988;29;20045;-78
2022/09/24 10:14:32;;;;;;;0.20;0.20;;;14.50;99.90;;;;;;4859517;29;20426;-77
2022/09/24 10:17:04;;;;;;;0.20;0.20;;;14.60;99.90;;;;;;4876569;29;20045;-77
2022/09/24 10:19:32;;;;;;;0.20;0.20;;;14.60;99.90;;;;;;4857758;29;20108;-78
2022/09/24 10:22:32;;;;;;;0.10;0.10;;;14.60;99.90;;;;;;4859094;29;20136;-77
2022/09/24 10:24:59;;;;;;;0.13;0.13;;;14.60;99.90;;;;;;4856427;29;20394;-77
2022/09/24 10:27:43;;;;;;;0.20;0.20;;;14.60;99.90;;;;;;4876076;29;20053;-78
2022/09/24 10:30:34;;;;;;;0.20;0.20;;;14.60;99.90;;;;;;4875105;29;20052;-77
2022/09/24 10:33:05;;;;;;;0.20;0.20;;;14.60;99.90;;;;;;4875564;29;20105;-77
2022/09/24 10:35:34;;;;;;;0.20;0.20;;;14.60;99.90;;;;;;4875602;29;20049;-78
2022/09/24 10:38:02;;;;;;;0.10;0.10;;;14.60;99.90;;;;;;4875962;29;20047;-78
2022/09/24 10:40:30;;;;;;;0.10;0.10;;;14.60;99.90;;;;;;4875189;29;20120;-78
2022/09/24 10:43:01;;;;;;;0.20;0.20;;;14.60;99.90;;;;;;4874916;29;20060;-77
2022/09/24 10:45:41;;;;;;;0.20;0.20;;;14.70;99.90;;;;;;4858923;29;20100;-79
2022/09/24 10:48:21;;;;;;;0.20;0.20;;;14.70;99.90;;;;;;4871611;29;20041;-80
2022/09/24 10:51:10;;;;;;;0.20;0.20;;;14.80;99.90;;;;;;4855272;29;20044;-79
2022/09/24 10:54:13;;;;;;;0.20;0.20;;;14.80;99.90;;;;;;4841009;29;20131;-78
2022/09/24 10:56:54;;;;;;;0.20;0.20;;;14.90;99.90;;;;;;4867557;29;20139;-78
2022/09/24 10:59:23;;;;;;;0.20;0.20;;;14.90;99.90;;;;;;4857960;29;20117;-78
2022/09/24 11:02:29;;;;;;;0.20;0.20;;;14.90;99.90;;;;;;4858961;29;20452;-79
2022/09/24 11:05:00;;;;;;;0.20;0.20;;;14.90;99.90;;;;;;4850056;29;20056;-78
2022/09/24 11:07:55;;;;;;;0.20;0.20;;;14.90;99.90;;;;;;4871040;29;20581;-78
2022/09/24 11:10:58;;;;;;;0.10;0.10;;;15.00;99.90;;;;;;4857490;29;20545;-79
2022/09/24 11:13:53;;;;;;;0.10;0.10;;;15.00;99.90;;;;;;4872617;29;20060;-79
2022/09/24 11:16:56;;;;;;;0.20;0.20;;;15.00;99.90;;;;;;4863015;29;20428;-79
2022/09/24 11:19:41;;;;;;;0.20;0.20;;;15.00;99.90;;;;;;4856373;29;20132;-78
2022/09/24 11:22:14;;;;;;;0.13;0.13;;;15.00;99.90;;;;;;4827474;29;20057;-78
2022/09/24 11:25:01;;;;;;;0.15;0.15;;;15.00;99.90;;;;;;4855099;29;20136;-78
2022/09/24 11:27:55;;;;;;;0.15;0.15;;;15.00;99.90;;;;;;4855533;29;20412;-78
2022/09/24 11:30:58;;;;;;;0.20;0.20;;;15.00;99.90;;;;;;4874734;29;20049;-78
2022/09/24 11:33:26;;;;;;;0.20;0.20;;;15.00;99.90;;;;;;4859169;29;20060;-78
2022/09/24 11:36:15;;;;;;;0.20;0.20;;;15.10;99.90;;;;;;4875564;29;20112;-77
2022/09/24 11:38:56;;;;;;;0.10;0.10;;;15.00;99.90;;;;;;4876235;29;20044;-78
2022/09/24 11:41:28;;;;;;;0.20;0.20;;;15.00;99.90;;;;;;4858838;29;20048;-80
2022/09/24 11:44:20;;;;;;;0.10;0.10;;;15.00;99.90;;;;;;4861769;29;20085;-78
2022/09/24 11:47:01;;;;;;;0.20;0.20;;;15.00;99.90;;;;;;4855580;29;20521;-78
2022/09/24 11:49:54;;;;;;;0.20;0.20;;;15.00;99.90;;;;;;4860175;29;20044;-78
2022/09/24 11:52:43;;;;;;;0.20;0.20;;;14.90;99.90;;;;;;4887537;29;20052;-78
2022/09/24 11:55:31;;;;;;;0.20;0.20;;;14.90;99.90;;;;;;4871330;29;20524;-79
2022/09/24 11:58:11;;;;;;;0.20;0.20;;;14.90;99.90;;;;;;4876596;29;20060;-79
2022/09/24 12:00:45;;;;;;;0.20;0.20;;;14.90;99.90;;;;;;4861983;29;20052;-78
2022/09/24 12:03:27;;;;;;;0.20;0.20;;;14.90;99.90;;;;;;4859910;29;20059;-78
2022/09/24 12:06:04;;;;;;;0.20;0.20;;;14.90;99.90;;;;;;4860743;29;20425;-78
2022/09/24 12:08:43;;;;;;;0.20;0.20;;;14.80;99.90;;;;;;4861979;29;20053;-79
2022/09/24 12:11:27;;;;;;;0.10;0.10;;;14.90;99.90;;;;;;4876438;29;20045;-78
2022/09/24 12:14:28;;;;;;;0.20;0.20;;;14.80;99.90;;;;;;4859644;29;20749;-79
2022/09/24 12:17:02;;;;;;;0.20;0.20;;;14.90;99.90;;;;;;4846612;29;20528;-79
2022/09/24 12:19:38;;;;;;;0.10;0.10;;;14.90;99.90;;;;;;4858004;29;20088;-79
2022/09/24 12:22:04;;;;;;;0.20;0.20;;;14.80;99.90;;;;;;4874185;29;20045;-78
2022/09/24 12:24:41;;;;;;;0.20;0.20;;;14.80;99.90;;;;;;4858716;29;20374;-78
2022/09/24 12:27:13;;;;;;;0.10;0.10;;;14.80;99.90;;;;;;4880156;29;20064;-77
2022/09/24 12:32:53;;;;;;;0.10;0.10;;;14.80;99.90;;;;;;4879190;29;20049;-78
2022/09/24 12:35:54;;;;;;;0.20;0.20;;;14.80;99.90;;;;;;4872240;29;20080;-78
2022/09/24 12:38:34;;;;;;;0.13;0.13;;;14.80;99.90;;;;;;4877200;29;20438;-77
2022/09/24 12:41:21;;;;;;;0.20;0.20;;;14.80;99.90;;;;;;4860416;29;20132;-78
2022/09/24 12:43:52;;;;;;;0.17;0.17;;;14.80;99.90;;;;;;4858702;29;20520;-79
2022/09/24 12:46:23;;;;;;;;;;;14.80;99.90;;;;;;4858972;29;20049;-77
2022/09/24 12:48:50;;;;;;;0.20;0.20;;;14.80;99.90;;;;;;4876408;29;20338;-78
2022/09/24 12:51:21;;;;;;;0.10;0.10;;;14.80;99.90;;;;;;4860257;29;20041;-79
2022/09/24 12:54:27;;;;;;;0.20;0.20;;;14.70;99.90;;;;;;4877226;29;20595;-77
2022/09/24 12:57:09;;;;;;;0.17;0.17;;;14.70;99.90;;;;;;4873777;29;20053;-77
2022/09/24 12:59:58;;;;;;;0.20;0.20;;;14.60;99.90;;;;;;4860877;29;20069;-78
2022/09/24 13:02:28;;;;;;;0.20;0.20;;;14.60;99.90;;;;;;4875652;29;20045;-77
2022/09/24 13:05:12;;;;;;;0.10;0.10;;;14.60;99.90;;;;;;4875790;29;20049;-77
2022/09/24 13:07:43;;;;;;;0.20;0.20;;;14.50;99.90;;;;;;4855535;29;20167;-78
2022/09/24 13:10:14;;;;;;;0.15;0.15;;;14.50;99.90;;;;;;4872467;29;20102;-78
2022/09/24 13:12:43;;;;;;;0.17;0.17;;;14.50;99.90;;;;;;4856023;29;20451;-79
2022/09/24 13:15:32;;;;;;;0.10;0.10;;;14.50;99.90;;;;;;4856919;29;20416;-81
2022/09/24 13:18:09;;;;;;;0.20;0.20;;;14.50;99.90;;;;;;4870981;29;20631;-78
2022/09/24 13:20:37;;;;;;;0.15;0.15;;;14.40;99.90;;;;;;4875825;29;20045;-78
2022/09/24 13:23:19;;;;;;;0.20;0.20;;;14.40;99.90;;;;;;4860508;29;20049;-78
2022/09/24 13:26:03;;;;;;;0.20;0.20;;;14.40;99.90;;;;;;4876801;29;20060;-77
2022/09/24 13:29:20;;;;;;;0.15;0.15;;;14.40;99.90;;;;;;4859666;29;20061;-78